createdAt,value
2022-10-26T00:01:46.372Z,98997.50
2022-10-26T00:04:16.106Z,98991.91
2022-10-26T00:06:44.491Z,98998.22
2022-10-26T00:09:12.788Z,98989.09
2022-10-26T00:11:41.187Z,98992.47
2022-10-26T00:14:09.519Z,98990.44
2022-10-26T00:16:37.905Z,98992.31
2022-10-26T00:19:06.417Z,98999.25
2022-10-26T00:21:36.221Z,98993.50
2022-10-26T00:24:05.099Z,98990.91
2022-10-26T00:26:33.424Z,98987.84
2022-10-26T00:29:02.143Z,98993.03
2022-10-26T00:31:30.509Z,98996.22
2022-10-26T00:33:59.262Z,98994.19
2022-10-26T00:36:27.840Z,98992.72
2022-10-26T00:38:58.154Z,98994.59
2022-10-26T00:41:29.415Z,98990.06
2022-10-26T00:43:57.920Z,98983.41
2022-10-26T00:46:29.278Z,98992.13
2022-10-26T00:49:02.484Z,98990.03
2022-10-26T00:51:35.999Z,98985.78
2022-10-26T00:54:11.198Z,98988.81
2022-10-26T00:56:40.840Z,98996.97
2022-10-26T00:59:12.239Z,98982.97
2022-10-26T01:01:44.104Z,98979.97
2022-10-26T01:04:14.661Z,98976.88
2022-10-26T01:06:44.160Z,98975.97
2022-10-26T01:09:14.576Z,98975.78
2022-10-26T01:11:43.054Z,98967.72
2022-10-26T01:14:14.671Z,98966.38
2022-10-26T01:17:00.526Z,98962.06
2022-10-26T01:19:45.595Z,98958.97
2022-10-26T01:22:17.658Z,98950.06
2022-10-26T01:25:05.360Z,98943.19
2022-10-26T01:27:37.043Z,98935.56
2022-10-26T01:30:17.599Z,98938.38
2022-10-26T01:32:56.393Z,98938.38
2022-10-26T01:35:30.097Z,98943.38
2022-10-26T01:38:03.489Z,98939.75
2022-10-26T01:40:37.361Z,98939.59
2022-10-26T01:43:12.308Z,98931.69
2022-10-26T01:45:47.196Z,98930.31
2022-10-26T01:48:19.960Z,98930.06
2022-10-26T01:50:50.889Z,98923.44
2022-10-26T01:53:20.957Z,98927.56
2022-10-26T01:55:51.849Z,98923.88
2022-10-26T01:59:11.604Z,98929.75
2022-10-26T02:02:05.141Z,98925.59
2022-10-26T02:04:42.171Z,98927.63
2022-10-26T02:07:19.425Z,98921.78
2022-10-26T02:09:58.617Z,98923.22
2022-10-26T02:12:34.303Z,98926.84
2022-10-26T02:15:07.746Z,98931.69
2022-10-26T02:17:47.298Z,98924.19
2022-10-26T02:20:22.920Z,98913.06
2022-10-26T02:22:52.250Z,98913.91
2022-10-26T02:25:24.664Z,98920.53
2022-10-26T02:27:58.380Z,98922.59
2022-10-26T02:30:27.931Z,98919.59
2022-10-26T02:32:59.748Z,98912.13
2022-10-26T02:35:31.167Z,98921.94
2022-10-26T02:38:02.384Z,98912.13
2022-10-26T02:40:30.951Z,98917.44
2022-10-26T02:43:05.337Z,98909.66
2022-10-26T02:45:38.245Z,98911.47
2022-10-26T02:48:08.566Z,98904.50
2022-10-26T02:50:44.328Z,98904.31
2022-10-26T02:53:20.590Z,98904.34
2022-10-26T02:55:51.612Z,98901.44
2022-10-26T02:58:24.737Z,98908.56
2022-10-26T03:00:54.359Z,98907.50
2022-10-26T03:03:24.470Z,98900.91
2022-10-26T03:05:52.952Z,98907.50
2022-10-26T03:08:21.312Z,98902.47
2022-10-26T03:10:49.713Z,98901.69
2022-10-26T03:13:18.080Z,98897.56
2022-10-26T03:15:46.441Z,98897.03
2022-10-26T03:18:14.769Z,98884.69
2022-10-26T03:20:46.281Z,98890.69
2022-10-26T03:23:14.647Z,98884.69
2022-10-26T03:25:42.986Z,98887.78
2022-10-26T03:28:11.436Z,98887.41
2022-10-26T03:30:39.909Z,98885.28
2022-10-26T03:33:08.220Z,98895.16
2022-10-26T03:35:36.742Z,98889.25
2022-10-26T03:38:06.552Z,98895.34
2022-10-26T03:40:35.877Z,98893.09
2022-10-26T03:43:04.480Z,98888.94
2022-10-26T03:45:32.837Z,98895.66
2022-10-26T03:48:01.201Z,98897.34
2022-10-26T03:50:29.571Z,98894.78
2022-10-26T03:52:58.098Z,98897.81
2022-10-26T03:55:27.963Z,98885.78
2022-10-26T03:57:56.442Z,98889.06
2022-10-26T04:00:24.796Z,98894.47
2022-10-26T04:02:56.380Z,98886.59
2022-10-26T04:05:26.140Z,98887.94
2022-10-26T04:07:55.379Z,98882.97
2022-10-26T04:10:24.305Z,98894.16
2022-10-26T04:12:54.577Z,98895.69
2022-10-26T04:15:23.449Z,98900.13
2022-10-26T04:17:56.871Z,98899.03
2022-10-26T04:20:26.213Z,98896.91
2022-10-26T04:22:59.033Z,98895.97
2022-10-26T04:25:30.150Z,98893.72
2022-10-26T04:28:04.170Z,98905.63
2022-10-26T04:30:33.215Z,98900.88
2022-10-26T04:33:02.098Z,98903.41
2022-10-26T04:35:31.171Z,98908.97
2022-10-26T04:38:00.264Z,98907.34
2022-10-26T04:40:29.472Z,98902.97
2022-10-26T04:42:58.305Z,98908.88
2022-10-26T04:45:30.790Z,98909.22
2022-10-26T04:48:04.960Z,98916.94
2022-10-26T04:50:37.367Z,98915.56
2022-10-26T04:53:06.431Z,98911.97
2022-10-26T04:55:35.942Z,98907.41
2022-10-26T04:58:04.564Z,98919.75
2022-10-26T05:00:35.192Z,98930.75
2022-10-26T05:03:05.085Z,98923.13
2022-10-26T05:05:36.115Z,98931.69
2022-10-26T05:08:05.624Z,98921.75
2022-10-26T05:10:34.806Z,98929.13
2022-10-26T05:13:03.218Z,98928.88
2022-10-26T05:15:31.958Z,98926.72
2022-10-26T05:18:03.399Z,98934.53
2022-10-26T05:20:34.367Z,98933.81
2022-10-26T05:23:04.322Z,98937.22
2022-10-26T05:25:35.601Z,98943.63
2022-10-26T05:28:06.113Z,98947.41
2022-10-26T05:30:34.927Z,98946.78
2022-10-26T05:33:04.917Z,98949.81
2022-10-26T05:35:33.686Z,98952.41
2022-10-26T05:38:09.234Z,98945.53
2022-10-26T05:40:37.819Z,98946.06
2022-10-26T05:43:06.227Z,98945.16
2022-10-26T05:45:34.531Z,98957.41
2022-10-26T05:48:04.390Z,98950.59
2022-10-26T05:50:32.804Z,98954.69
2022-10-26T05:53:01.179Z,98950.25
2022-10-26T05:55:30.710Z,98946.97
2022-10-26T05:57:59.813Z,98952.25
2022-10-26T06:00:30.183Z,98956.56
2022-10-26T06:03:15.594Z,98965.06
2022-10-26T06:05:53.425Z,98965.28
2022-10-26T06:08:23.049Z,98960.50
2022-10-26T06:10:52.438Z,98966.00
2022-10-26T06:13:21.394Z,98967.00
2022-10-26T06:16:02.432Z,98973.31
2022-10-26T06:18:40.670Z,98970.88
2022-10-26T06:21:22.102Z,98967.44
2022-10-26T06:23:56.821Z,98974.75
2022-10-26T06:26:37.896Z,98979.88
2022-10-26T06:29:18.724Z,98982.69
2022-10-26T06:31:48.504Z,98986.47
2022-10-26T06:34:25.806Z,98993.50
2022-10-26T06:39:29.973Z,98998.75
2022-10-26T06:41:59.201Z,99002.81
2022-10-26T06:44:28.318Z,98994.44
2022-10-26T06:47:06.825Z,98986.09
2022-10-26T06:49:40.250Z,98985.41
2022-10-26T06:52:17.126Z,98987.28
2022-10-26T06:54:49.549Z,98990.22
2022-10-26T06:57:19.587Z,98994.91
2022-10-26T06:59:51.644Z,99000.53
2022-10-26T07:02:20.644Z,98997.38
2022-10-26T07:04:50.477Z,98988.41
2022-10-26T07:07:21.170Z,98995.69
2022-10-26T07:09:50.389Z,98991.97
2022-10-26T07:12:19.074Z,98987.13
2022-10-26T07:14:47.935Z,98982.59
2022-10-26T07:17:16.973Z,98973.09
2022-10-26T07:19:45.666Z,98972.13
2022-10-26T07:22:15.345Z,98975.53
2022-10-26T07:24:43.715Z,98977.66
2022-10-26T07:27:12.152Z,98980.13
2022-10-26T07:29:40.469Z,98973.34
2022-10-26T07:32:08.940Z,98996.28
2022-10-26T07:34:37.313Z,98988.09
2022-10-26T07:37:05.677Z,98991.34
2022-10-26T07:39:35.582Z,99002.06
2022-10-26T07:42:03.909Z,99008.56
2022-10-26T07:44:32.284Z,99005.41
2022-10-26T07:47:00.758Z,99017.69
2022-10-26T07:49:29.095Z,99015.38
2022-10-26T07:51:57.410Z,99027.13
2022-10-26T07:54:25.731Z,99033.84
2022-10-26T07:56:55.445Z,99036.75
2022-10-26T07:59:23.811Z,99031.94
2022-10-26T08:01:52.164Z,99038.47
2022-10-26T08:04:20.587Z,99036.59
2022-10-26T08:06:51.805Z,99034.16
2022-10-26T08:09:20.333Z,99030.31
2022-10-26T08:11:48.623Z,99042.91
2022-10-26T08:14:18.348Z,99049.34
2022-10-26T08:16:47.326Z,99055.81
2022-10-26T08:19:15.643Z,99062.22
2022-10-26T08:21:43.953Z,99048.72
2022-10-26T08:24:12.491Z,99048.06
2022-10-26T08:26:40.853Z,99055.13
2022-10-26T08:29:09.371Z,99066.22
2022-10-26T08:31:39.069Z,99067.59
2022-10-26T08:34:07.442Z,99074.06
2022-10-26T08:36:35.749Z,99088.19
2022-10-26T08:39:04.777Z,99090.09
2022-10-26T08:41:38.115Z,99088.03
2022-10-26T08:44:21.049Z,99091.88
2022-10-26T08:46:54.978Z,99104.47
2022-10-26T08:49:25.973Z,99106.19
2022-10-26T08:51:58.725Z,99106.16
2022-10-26T08:54:38.151Z,99109.91
2022-10-26T08:57:17.143Z,99108.47
2022-10-26T08:59:50.323Z,99117.34
2022-10-26T09:02:20.144Z,99118.00
2022-10-26T09:04:48.604Z,99124.41
2022-10-26T09:07:41.082Z,99119.56
2022-10-26T09:10:23.156Z,99129.50
2022-10-26T09:13:01.619Z,99126.84
2022-10-26T09:15:37.648Z,99129.81
2022-10-26T09:18:23.765Z,99128.06
2022-10-26T09:21:06.200Z,99132.34
2022-10-26T09:24:23.842Z,99140.53
2022-10-26T09:26:59.486Z,99140.53
2022-10-26T09:30:14.636Z,99147.53
2022-10-26T09:32:47.074Z,99159.31
2022-10-26T09:35:20.243Z,99177.22
2022-10-26T09:37:52.683Z,99166.53
2022-10-26T09:40:26.879Z,99162.69
2022-10-26T09:42:59.302Z,99174.06
2022-10-26T09:45:34.171Z,99173.22
2022-10-26T09:48:08.390Z,99178.63
2022-10-26T09:50:43.402Z,99183.13
2022-10-26T09:53:11.888Z,99189.91
2022-10-26T09:55:43.822Z,99190.69
2022-10-26T09:58:16.124Z,99187.75
2022-10-26T10:00:49.065Z,99187.28
2022-10-26T10:03:22.219Z,99195.41
2022-10-26T10:05:52.933Z,99200.56
2022-10-26T10:08:23.315Z,99213.56
2022-10-26T10:10:58.322Z,99209.53
2022-10-26T10:13:28.816Z,99211.38
2022-10-26T10:16:03.162Z,99212.59
2022-10-26T10:18:34.375Z,99217.94
2022-10-26T10:21:05.765Z,99223.94
2022-10-26T10:23:35.855Z,99223.19
2022-10-26T10:26:10.923Z,99219.94
2022-10-26T10:28:45.451Z,99235.66
2022-10-26T10:31:24.317Z,99228.63
2022-10-26T10:33:55.356Z,99228.59
2022-10-26T10:36:29.608Z,99236.22
2022-10-26T10:38:58.088Z,99249.88
2022-10-26T10:41:29.960Z,99238.13
2022-10-26T10:44:06.711Z,99254.88
2022-10-26T10:46:37.510Z,99246.91
2022-10-26T10:49:08.146Z,99240.25
2022-10-26T10:51:41.162Z,99240.19
2022-10-26T10:54:23.461Z,99247.53
2022-10-26T10:56:54.108Z,99246.41
2022-10-26T10:59:42.614Z,99246.63
2022-10-26T11:02:32.247Z,99249.69
2022-10-26T11:05:12.867Z,99259.88
2022-10-26T11:07:48.715Z,99261.69
2022-10-26T11:10:19.697Z,99262.44
2022-10-26T11:12:54.003Z,99269.88
2022-10-26T11:15:26.286Z,99271.63
2022-10-26T11:18:04.969Z,99279.38
2022-10-26T11:20:36.314Z,99279.94
2022-10-26T11:23:11.750Z,99273.22
2022-10-26T11:25:45.904Z,99267.72
2022-10-26T11:28:17.368Z,99283.47
2022-10-26T11:30:50.110Z,99286.78
2022-10-26T11:33:23.830Z,99287.97
2022-10-26T11:35:57.581Z,99294.75
2022-10-26T11:38:46.046Z,99290.56
2022-10-26T11:41:20.028Z,99300.81
2022-10-26T11:43:50.732Z,99282.28
2022-10-26T11:46:23.441Z,99289.81
2022-10-26T11:48:59.793Z,99294.75
2022-10-26T11:51:40.523Z,99285.69
2022-10-26T11:54:14.576Z,99283.81
2022-10-26T11:56:46.705Z,99297.63
2022-10-26T11:59:20.470Z,99294.91
2022-10-26T12:01:52.149Z,99297.56
2022-10-26T12:04:23.382Z,99308.19
2022-10-26T12:06:55.417Z,99309.50
2022-10-26T12:09:33.432Z,99311.38
2022-10-26T12:12:10.609Z,99315.31
2022-10-26T12:14:44.111Z,99316.47
2022-10-26T12:17:17.587Z,99314.09
2022-10-26T12:19:51.069Z,99314.63
2022-10-26T12:22:21.575Z,99319.72
2022-10-26T12:25:13.887Z,99319.06
2022-10-26T12:27:55.430Z,99319.50
2022-10-26T12:30:30.065Z,99320.34
2022-10-26T12:33:00.089Z,99319.19
2022-10-26T12:35:46.449Z,99320.16
2022-10-26T12:38:57.697Z,99330.13
2022-10-26T12:41:28.260Z,99310.41
2022-10-26T12:43:58.767Z,99321.72
2022-10-26T12:46:42.936Z,99337.38
2022-10-26T12:49:58.826Z,99337.22
2022-10-26T12:52:33.565Z,99352.41
2022-10-26T12:55:16.565Z,99350.88
2022-10-26T12:57:57.329Z,99352.75
2022-10-26T13:00:27.669Z,99356.31
2022-10-26T13:03:08.818Z,99353.06
2022-10-26T13:05:58.825Z,99363.59
2022-10-26T13:08:28.281Z,99362.47
2022-10-26T13:11:07.766Z,99365.00
2022-10-26T13:13:37.580Z,99366.16
2022-10-26T13:16:06.750Z,99367.56
2022-10-26T13:18:43.606Z,99369.72
2022-10-26T13:21:14.810Z,99370.97
2022-10-26T13:23:46.175Z,99378.50
2022-10-26T13:26:17.202Z,99382.31
2022-10-26T13:28:50.057Z,99372.00
2022-10-26T13:32:00.193Z,99386.38
2022-10-26T13:34:32.415Z,99383.53
2022-10-26T13:37:07.810Z,99383.28
2022-10-26T13:39:39.283Z,99379.00
2022-10-26T13:42:09.275Z,99379.88
2022-10-26T13:44:42.945Z,99371.81
2022-10-26T13:47:17.244Z,99376.13
2022-10-26T13:49:49.491Z,99374.38
2022-10-26T13:52:23.812Z,99385.53
2022-10-26T13:54:57.108Z,99387.38
2022-10-26T13:57:34.923Z,99388.44
2022-10-26T14:00:10.086Z,99386.16
2022-10-26T14:02:43.048Z,99393.00
2022-10-26T14:05:13.405Z,99398.81
2022-10-26T14:07:45.520Z,99393.78
2022-10-26T14:10:26.069Z,99396.41
2022-10-26T14:12:54.689Z,99391.25
2022-10-26T14:15:28.373Z,99394.66
2022-10-26T14:17:57.333Z,99399.19
2022-10-26T14:20:27.438Z,99400.09
2022-10-26T14:22:55.994Z,99392.91
2022-10-26T14:25:36.262Z,99404.31
2022-10-26T14:28:24.448Z,99409.25
2022-10-26T14:30:54.506Z,99414.28
2022-10-26T14:33:28.623Z,99409.28
2022-10-26T14:35:57.383Z,99412.19
2022-10-26T14:38:29.917Z,99420.34
2022-10-26T14:40:58.790Z,99421.41
2022-10-26T14:43:28.131Z,99421.13
2022-10-26T14:45:58.091Z,99425.34
2022-10-26T14:48:31.003Z,99424.78
2022-10-26T14:51:04.641Z,99430.38
2022-10-26T14:53:39.850Z,99441.00
2022-10-26T14:56:22.415Z,99436.19
2022-10-26T14:58:52.015Z,99431.47
2022-10-26T15:01:35.634Z,99429.75
2022-10-26T15:04:07.249Z,99433.28
2022-10-26T15:06:41.619Z,99426.63
2022-10-26T15:09:32.060Z,99425.81
2022-10-26T15:12:02.766Z,99429.56
2022-10-26T15:14:31.475Z,99433.16
2022-10-26T15:17:01.622Z,99438.50
2022-10-26T15:19:30.293Z,99433.53
2022-10-26T15:21:58.830Z,99449.16
2022-10-26T15:24:36.051Z,99444.69
2022-10-26T15:27:15.746Z,99447.97
2022-10-26T15:29:46.201Z,99460.97
2022-10-26T15:32:30.580Z,99462.44
2022-10-26T15:35:32.929Z,99457.63
2022-10-26T15:38:01.939Z,99465.28
2022-10-26T15:40:32.506Z,99459.88
2022-10-26T15:43:01.981Z,99463.97
2022-10-26T15:45:37.243Z,99477.88
2022-10-26T15:48:25.560Z,99469.19
2022-10-26T15:50:54.125Z,99475.03
2022-10-26T15:53:24.562Z,99479.47
2022-10-26T15:55:54.833Z,99480.81
2022-10-26T15:58:23.593Z,99480.97
2022-10-26T16:00:52.581Z,99494.75
2022-10-26T16:03:24.257Z,99503.41
2022-10-26T16:05:57.591Z,99504.00
2022-10-26T16:08:28.157Z,99508.22
2022-10-26T16:10:56.745Z,99510.84
2022-10-26T16:13:29.995Z,99520.31
2022-10-26T16:15:58.604Z,99531.59
2022-10-26T16:18:28.325Z,99534.16
2022-10-26T16:20:56.700Z,99529.31
2022-10-26T16:23:24.990Z,99529.88
2022-10-26T16:25:53.328Z,99544.81
2022-10-26T16:28:21.687Z,99550.06
2022-10-26T16:30:50.074Z,99544.03
2022-10-26T16:33:18.413Z,99552.44
2022-10-26T16:35:56.825Z,99557.53
2022-10-26T16:38:26.407Z,99559.75
2022-10-26T16:41:02.014Z,99571.28
2022-10-26T16:43:32.420Z,99568.44
2022-10-26T16:46:02.406Z,99574.56
2022-10-26T16:48:30.851Z,99577.72
2022-10-26T16:51:06.193Z,99584.75
2022-10-26T16:53:35.790Z,99597.94
2022-10-26T16:56:07.825Z,99591.56
2022-10-26T16:58:37.545Z,99603.53
2022-10-26T17:01:07.027Z,99615.66
2022-10-26T17:03:35.734Z,99617.88
2022-10-26T17:06:08.676Z,99611.41
2022-10-26T17:08:37.950Z,99618.91
2022-10-26T17:11:09.252Z,99627.31
2022-10-26T17:13:38.516Z,99627.25
2022-10-26T17:16:09.455Z,99639.84
2022-10-26T17:18:37.906Z,99633.28
2022-10-26T17:21:07.958Z,99647.97
2022-10-26T17:23:36.539Z,99647.75
2022-10-26T17:26:06.428Z,99645.81
2022-10-26T17:28:37.199Z,99651.34
2022-10-26T17:31:06.936Z,99650.41
2022-10-26T17:33:36.003Z,99662.81
2022-10-26T17:36:06.177Z,99651.41
2022-10-26T17:38:38.124Z,99666.25
2022-10-26T17:41:08.704Z,99660.72
2022-10-26T17:43:38.915Z,99662.28
2022-10-26T17:46:10.542Z,99675.25
2022-10-26T17:48:39.488Z,99678.19
2022-10-26T17:51:11.265Z,99681.19
2022-10-26T17:53:41.413Z,99686.41
2022-10-26T17:56:12.287Z,99678.81
2022-10-26T17:58:41.062Z,99685.09
2022-10-26T18:01:11.541Z,99687.75
2022-10-26T18:03:41.109Z,99697.38
2022-10-26T18:06:09.570Z,99698.13
2022-10-26T18:08:39.085Z,99703.72
2022-10-26T18:11:13.821Z,99701.66
2022-10-26T18:13:42.934Z,99701.59
2022-10-26T18:16:12.736Z,99697.59
2022-10-26T18:18:46.185Z,99705.44
2022-10-26T18:21:15.380Z,99716.53
2022-10-26T18:23:43.926Z,99721.31
2022-10-26T18:26:18.298Z,99725.66
2022-10-26T18:28:46.870Z,99730.31
2022-10-26T18:31:18.184Z,99735.94
2022-10-26T18:33:46.965Z,99739.25
2022-10-26T18:36:16.947Z,99736.19
2022-10-26T18:38:48.201Z,99742.13
2022-10-26T18:41:19.886Z,99740.78
2022-10-26T18:43:51.190Z,99742.00
2022-10-26T18:46:24.472Z,99749.09
2022-10-26T18:48:53.222Z,99746.63
2022-10-26T18:51:25.219Z,99740.09
2022-10-26T18:53:53.848Z,99751.75
2022-10-26T18:56:24.874Z,99743.94
2022-10-26T18:58:58.143Z,99754.41
2022-10-26T19:01:28.510Z,99752.91
2022-10-26T19:03:59.240Z,99755.41
2022-10-26T19:06:29.435Z,99754.06
2022-10-26T19:08:58.503Z,99757.41
2022-10-26T19:11:30.383Z,99766.28
2022-10-26T19:13:59.673Z,99758.50
2022-10-26T19:16:48.038Z,99765.19
2022-10-26T19:19:17.243Z,99760.72
2022-10-26T19:21:46.555Z,99768.78
2022-10-26T19:24:17.800Z,99773.19
2022-10-26T19:26:48.439Z,99765.63
2022-10-26T19:29:18.220Z,99767.91
2022-10-26T19:31:47.857Z,99773.06
2022-10-26T19:34:19.252Z,99779.84
2022-10-26T19:36:48.110Z,99777.13
2022-10-26T19:39:17.967Z,99781.66
2022-10-26T19:41:47.926Z,99772.88
2022-10-26T19:44:17.292Z,99776.13
2022-10-26T19:46:47.209Z,99777.59
2022-10-26T19:49:17.501Z,99779.25
2022-10-26T19:51:47.800Z,99781.31
2022-10-26T19:54:16.244Z,99786.59
2022-10-26T19:56:44.616Z,99782.91
2022-10-26T19:59:14.475Z,99790.25
2022-10-26T20:01:42.876Z,99793.16
2022-10-26T20:04:11.903Z,99787.91
2022-10-26T20:06:40.292Z,99795.03
2022-10-26T20:09:08.961Z,99793.56
2022-10-26T20:11:39.609Z,99793.44
2022-10-26T20:14:08.505Z,99794.56
2022-10-26T20:16:38.179Z,99803.69
2022-10-26T20:19:06.894Z,99805.56
2022-10-26T20:21:35.253Z,99808.06
2022-10-26T20:24:05.622Z,99808.97
2022-10-26T20:26:36.598Z,99808.06
2022-10-26T20:29:04.918Z,99822.41
2022-10-26T20:31:33.338Z,99821.47
2022-10-26T20:34:03.399Z,99815.28
2022-10-26T20:36:31.904Z,99816.13
2022-10-26T20:39:00.754Z,99819.00
2022-10-26T20:41:29.603Z,99818.13
2022-10-26T20:43:58.652Z,99822.88
2022-10-26T20:46:28.547Z,99820.91
2022-10-26T20:48:57.557Z,99823.44
2022-10-26T20:51:44.523Z,99830.47
2022-10-26T20:54:25.158Z,99827.09
2022-10-26T20:56:55.778Z,99836.75
2022-10-26T20:59:30.815Z,99840.69
2022-10-26T21:01:59.268Z,99839.47
2022-10-26T21:04:27.767Z,99837.22
2022-10-26T21:06:57.866Z,99841.75
2022-10-26T21:09:27.622Z,99834.47
2022-10-26T21:11:58.293Z,99840.25
2022-10-26T21:14:27.528Z,99846.16
2022-10-26T21:16:56.236Z,99836.31
2022-10-26T21:19:24.781Z,99836.44
2022-10-26T21:21:53.184Z,99847.16
2022-10-26T21:24:22.954Z,99839.44
2022-10-26T21:26:51.366Z,99845.69
2022-10-26T21:29:19.876Z,99838.06
2022-10-26T21:31:48.313Z,99846.50
2022-10-26T21:34:16.689Z,99845.22
2022-10-26T21:36:45.057Z,99843.75
2022-10-26T21:39:13.606Z,99849.25
2022-10-26T21:41:43.838Z,99850.06
2022-10-26T21:44:24.469Z,99841.34
2022-10-26T21:47:00.658Z,99843.63
2022-10-26T21:49:29.037Z,99845.31
2022-10-26T21:51:57.386Z,99848.06
2022-10-26T21:54:25.833Z,99849.38
2022-10-26T21:56:55.550Z,99848.72
2022-10-26T21:59:24.118Z,99851.63
2022-10-26T22:01:52.641Z,99856.22
2022-10-26T22:04:21.082Z,99847.56
2022-10-26T22:06:49.502Z,99850.97
2022-10-26T22:09:17.943Z,99846.72
2022-10-26T22:11:46.556Z,99847.28
2022-10-26T22:14:16.992Z,99841.91
2022-10-26T22:16:45.365Z,99858.09
2022-10-26T22:19:13.775Z,99850.19
2022-10-26T22:21:42.753Z,99851.72
2022-10-26T22:24:11.154Z,99851.66
2022-10-26T22:26:39.848Z,99854.72
2022-10-26T22:29:08.203Z,99848.59
2022-10-26T22:31:40.052Z,99831.59
2022-10-26T22:34:14.454Z,99851.66
2022-10-26T22:36:43.212Z,99853.09
2022-10-26T22:39:11.588Z,99857.75
2022-10-26T22:41:39.939Z,99855.91
2022-10-26T22:44:08.364Z,99858.09
2022-10-26T22:46:38.110Z,99851.66
2022-10-26T22:49:06.622Z,99854.84
2022-10-26T22:51:36.055Z,99860.63
2022-10-26T22:54:05.846Z,99854.50
2022-10-26T22:56:36.777Z,99848.78
2022-10-26T22:59:06.421Z,99844.28
2022-10-26T23:01:39.375Z,99852.66
2022-10-26T23:04:08.426Z,99833.47
2022-10-26T23:06:36.738Z,99837.38
2022-10-26T23:09:06.302Z,99844.16
2022-10-26T23:11:34.890Z,99845.19
2022-10-26T23:14:04.695Z,99838.31
2022-10-26T23:16:33.550Z,99832.56
2022-10-26T23:19:03.284Z,99830.06
2022-10-26T23:21:31.928Z,99834.91
2022-10-26T23:24:00.314Z,99837.41
2022-10-26T23:26:28.932Z,99839.50
2022-10-26T23:28:57.349Z,99831.88
2022-10-26T23:31:27.773Z,99839.16
2022-10-26T23:33:57.310Z,99843.19
2022-10-26T23:36:27.122Z,99841.19
2022-10-26T23:38:55.466Z,99843.75
2022-10-26T23:41:23.776Z,99842.31
2022-10-26T23:43:52.108Z,99844.97
2022-10-26T23:46:20.494Z,99848.31
2022-10-26T23:48:48.860Z,99847.81
2022-10-26T23:51:17.222Z,99846.22
2022-10-26T23:53:46.879Z,99843.56
2022-10-26T23:56:15.216Z,99846.28
2022-10-26T23:58:43.989Z,99848.00
